Time;durP1;ratioP1;P1;durP2;ratioP2;P2;SDS_P1;SDS_P2;PMS_P1;PMS_P2;Temp;Humidity;BMP_temperature;BMP_pressure;BME280_temperature;BME280_humidity;BME280_pressure;Samples;Min_cycle;Max_cycle;Signal;HPM_P1;HPM_P2
2023/07/30 00:00:45;;;;;;;3.90;3.50;;;24.90;73.20;;;;;;5038798;28;20459;-81
2023/07/30 00:03:14;;;;;;;3.43;3.23;;;24.90;72.70;;;;;;5042001;28;20438;-81
2023/07/30 00:05:52;;;;;;;3.50;3.20;;;24.80;73.10;;;;;;5036945;28;20472;-81
2023/07/30 00:08:19;;;;;;;3.50;3.20;;;24.80;73.70;;;;;;5035647;28;20447;-80
2023/07/30 00:10:48;;;;;;;5.30;4.80;;;24.80;73.60;;;;;;5035036;28;20466;-80
2023/07/30 00:13:17;;;;;;;5.70;5.20;;;24.70;73.60;;;;;;5031563;28;20497;-78
2023/07/30 00:15:46;;;;;;;6.60;5.27;;;24.70;74.10;;;;;;5030675;28;20466;-80
2023/07/30 00:18:15;;;;;;;8.63;4.97;;;24.70;73.60;;;;;;5026237;28;20444;-80
2023/07/30 00:20:43;;;;;;;6.87;6.17;;;24.60;74.30;;;;;;5035458;28;20464;-85
2023/07/30 00:23:11;;;;;;;9.83;6.70;;;24.60;76.50;;;;;;5032295;28;20451;-85
2023/07/30 00:25:39;;;;;;;9.93;5.10;;;24.90;76.20;;;;;;5027548;28;20475;-83
2023/07/30 00:28:08;;;;;;;9.20;6.50;;;25.10;74.80;;;;;;5022121;28;20476;-83
2023/07/30 00:30:36;;;;;;;6.50;5.50;;;25.20;74.00;;;;;;5021127;28;20526;-86
2023/07/30 00:33:04;;;;;;;5.90;5.30;;;25.30;73.20;;;;;;5040614;28;20447;-85
2023/07/30 00:35:32;;;;;;;6.73;5.57;;;25.40;72.40;;;;;;5042526;28;20442;-85
2023/07/30 00:37:59;;;;;;;7.83;5.50;;;25.40;71.90;;;;;;5033205;28;20440;-85
2023/07/30 00:40:28;;;;;;;8.90;6.40;;;25.40;71.30;;;;;;5035197;28;20418;-85
2023/07/30 00:42:56;;;;;;;6.20;5.70;;;25.40;71.00;;;;;;5048010;28;20414;-84
2023/07/30 00:45:26;;;;;;;6.07;5.47;;;25.50;70.80;;;;;;5052187;28;20434;-85
2023/07/30 00:47:56;;;;;;;10.73;6.23;;;25.50;70.20;;;;;;5044288;28;20461;-84
2023/07/30 00:50:24;;;;;;;7.67;6.87;;;25.50;70.00;;;;;;5050492;28;20455;-86
2023/07/30 00:52:52;;;;;;;8.57;6.00;;;25.50;69.80;;;;;;5051905;28;20410;-85
2023/07/30 00:55:21;;;;;;;6.43;5.73;;;25.60;69.70;;;;;;5051951;28;20460;-87
2023/07/30 00:57:49;;;;;;;7.20;6.50;;;25.60;69.30;;;;;;5052904;28;20402;-87
2023/07/30 01:00:17;;;;;;;8.80;6.63;;;25.60;68.70;;;;;;5050195;28;20435;-85
2023/07/30 01:02:46;;;;;;;7.30;6.60;;;25.60;68.80;;;;;;5041075;28;20414;-85
2023/07/30 01:05:14;;;;;;;7.43;6.73;;;25.60;68.80;;;;;;5040020;28;20470;-86
2023/07/30 01:07:43;;;;;;;6.70;6.10;;;25.60;68.40;;;;;;5041251;28;20467;-83
2023/07/30 01:10:11;;;;;;;9.50;7.10;;;25.60;68.10;;;;;;5040960;28;20439;-85
2023/07/30 01:12:39;;;;;;;7.40;6.70;;;25.60;68.20;;;;;;5040484;28;20421;-85
2023/07/30 01:15:08;;;;;;;7.87;7.13;;;25.60;68.00;;;;;;5041568;28;20500;-86
2023/07/30 01:17:36;;;;;;;7.63;6.93;;;25.60;67.70;;;;;;5040801;28;20457;-85
2023/07/30 01:20:10;;;;;;;7.80;7.00;;;25.60;67.50;;;;;;5036821;28;20414;-85
2023/07/30 01:22:39;;;;;;;7.60;6.90;;;25.60;67.60;;;;;;5035531;28;20430;-86
2023/07/30 01:25:08;;;;;;;8.03;7.33;;;25.60;67.30;;;;;;5041005;28;20474;-85
2023/07/30 01:27:38;;;;;;;8.63;7.30;;;25.60;67.10;;;;;;5039641;28;20468;-84
2023/07/30 01:30:13;;;;;;;8.17;7.30;;;25.60;67.10;;;;;;5039924;28;20439;-86
2023/07/30 01:32:41;;;;;;;9.93;7.97;;;25.60;66.90;;;;;;5039969;28;20438;-85
2023/07/30 01:35:10;;;;;;;8.10;7.17;;;25.60;66.90;;;;;;5039300;28;20467;-84
2023/07/30 01:37:39;;;;;;;7.60;6.83;;;25.60;66.60;;;;;;5042721;28;20432;-85
2023/07/30 01:40:08;;;;;;;8.97;7.50;;;25.60;66.70;;;;;;5044441;28;20537;-85
2023/07/30 01:42:36;;;;;;;10.37;7.60;;;25.50;66.50;;;;;;5039501;28;20431;-84
2023/07/30 01:45:06;;;;;;;8.43;7.47;;;25.60;66.50;;;;;;5038728;28;20519;-85
2023/07/30 01:47:34;;;;;;;9.10;7.80;;;25.60;66.40;;;;;;5038374;28;20438;-85
2023/07/30 01:50:03;;;;;;;7.00;6.40;;;25.60;66.40;;;;;;5039489;28;20447;-84
2023/07/30 01:52:31;;;;;;;9.30;7.43;;;25.50;66.20;;;;;;5039883;28;20450;-84
2023/07/30 01:55:01;;;;;;;8.80;6.90;;;25.50;66.50;;;;;;5039963;28;20518;-85
2023/07/30 01:57:29;;;;;;;8.50;7.60;;;25.50;66.00;;;;;;5038850;28;20498;-85
2023/07/30 01:59:57;;;;;;;7.30;6.60;;;25.50;65.90;;;;;;5039494;28;20439;-85
2023/07/30 02:02:25;;;;;;;8.53;7.10;;;25.50;65.90;;;;;;5039128;28;20410;-85
2023/07/30 02:04:53;;;;;;;8.17;7.40;;;25.50;65.60;;;;;;5030523;28;20439;-85
2023/07/30 02:07:21;;;;;;;6.80;6.17;;;25.50;65.90;;;;;;5039695;28;20474;-85
2023/07/30 02:09:49;;;;;;;7.77;7.03;;;25.50;65.60;;;;;;5031470;28;20462;-83
2023/07/30 02:12:18;;;;;;;9.07;6.50;;;25.50;65.60;;;;;;5039660;28;20447;-85
2023/07/30 02:14:46;;;;;;;7.70;6.90;;;25.40;65.50;;;;;;5038731;28;20525;-85
2023/07/30 02:17:14;;;;;;;7.90;6.40;;;25.50;65.60;;;;;;5039836;28;20486;-85
2023/07/30 02:19:43;;;;;;;6.97;6.37;;;25.40;65.20;;;;;;5039229;28;20443;-85
2023/07/30 02:22:11;;;;;;;6.83;6.20;;;25.40;65.10;;;;;;5039000;28;20488;-84
2023/07/30 02:24:38;;;;;;;7.37;6.50;;;25.40;65.10;;;;;;5038165;28;20452;-85
2023/07/30 02:27:07;;;;;;;7.00;6.30;;;25.40;65.20;;;;;;5038997;28;20475;-86
2023/07/30 02:29:37;;;;;;;11.87;6.60;;;25.40;64.90;;;;;;5037445;28;20439;-85
2023/07/30 02:32:06;;;;;;;6.83;6.27;;;25.40;64.90;;;;;;5038877;28;20491;-85
2023/07/30 02:34:34;;;;;;;7.33;6.63;;;25.40;65.10;;;;;;5038742;28;20497;-86
2023/07/30 02:37:01;;;;;;;9.37;7.27;;;25.40;64.60;;;;;;5038679;28;20459;-83
2023/07/30 02:39:30;;;;;;;7.50;6.80;;;25.40;64.80;;;;;;5021728;28;20609;-83
2023/07/30 02:41:58;;;;;;;10.00;6.27;;;25.40;64.90;;;;;;5038433;28;20444;-84
2023/07/30 02:44:26;;;;;;;6.60;5.90;;;25.40;64.80;;;;;;5036906;28;20418;-83
2023/07/30 02:46:55;;;;;;;6.47;5.87;;;25.40;64.40;;;;;;5027927;28;20517;-81
2023/07/30 02:49:24;;;;;;;9.53;6.43;;;25.30;64.60;;;;;;5036906;28;20944;-81
2023/07/30 02:51:52;;;;;;;6.20;5.53;;;25.30;64.60;;;;;;5034296;28;20459;-81
2023/07/30 02:54:20;;;;;;;6.73;5.90;;;25.30;64.30;;;;;;5045033;28;20498;-80
2023/07/30 02:56:49;;;;;;;6.80;6.10;;;25.30;64.30;;;;;;5048601;28;20448;-81
2023/07/30 02:59:17;;;;;;;9.17;6.17;;;25.30;64.30;;;;;;5049791;28;20453;-81
2023/07/30 03:01:45;;;;;;;8.60;5.97;;;25.30;64.30;;;;;;5049537;28;20478;-80
2023/07/30 03:04:15;;;;;;;6.33;5.73;;;25.30;64.30;;;;;;5037515;28;20421;-81
2023/07/30 03:06:43;;;;;;;6.60;5.87;;;25.30;64.20;;;;;;5031571;28;20493;-84
2023/07/30 03:09:11;;;;;;;6.20;5.60;;;25.30;63.80;;;;;;5022070;28;20531;-84
2023/07/30 03:11:40;;;;;;;6.53;5.93;;;25.20;63.80;;;;;;5045131;28;20428;-82
2023/07/30 03:14:08;;;;;;;6.30;5.47;;;25.20;64.10;;;;;;5042738;28;20454;-84
2023/07/30 03:16:36;;;;;;;7.67;5.80;;;25.20;63.90;;;;;;5037889;28;20438;-84
2023/07/30 03:19:04;;;;;;;6.03;5.43;;;25.20;63.90;;;;;;5036372;28;20460;-84
2023/07/30 03:21:34;;;;;;;6.77;6.07;;;25.20;63.90;;;;;;5037757;28;20485;-84
2023/07/30 03:24:03;;;;;;;6.23;5.63;;;25.20;63.70;;;;;;5036675;28;20442;-84
2023/07/30 03:26:31;;;;;;;6.50;5.90;;;25.20;63.60;;;;;;5027133;28;20492;-84
2023/07/30 03:28:59;;;;;;;6.30;5.50;;;25.20;63.90;;;;;;5018350;28;20521;-83
2023/07/30 03:31:28;;;;;;;6.50;5.57;;;25.20;63.60;;;;;;5026028;28;20418;-84
2023/07/30 03:33:56;;;;;;;5.60;5.10;;;25.20;63.60;;;;;;5031762;28;20788;-84
2023/07/30 03:36:24;;;;;;;5.93;5.13;;;25.20;63.40;;;;;;5027635;28;20475;-84
2023/07/30 03:38:54;;;;;;;6.10;5.47;;;25.20;63.50;;;;;;5037379;28;20466;-84
2023/07/30 03:41:22;;;;;;;6.17;5.57;;;25.20;63.20;;;;;;5020257;28;20441;-84
2023/07/30 03:43:50;;;;;;;5.23;4.70;;;25.20;63.30;;;;;;5016826;28;20451;-84
2023/07/30 03:46:20;;;;;;;5.87;4.57;;;25.10;63.50;;;;;;5025748;28;20467;-81
2023/07/30 03:48:48;;;;;;;7.43;5.93;;;25.10;63.20;;;;;;5036993;28;20471;-81
2023/07/30 03:51:17;;;;;;;9.60;5.03;;;25.10;63.40;;;;;;5032521;28;20436;-80
2023/07/30 03:53:45;;;;;;;5.13;4.57;;;25.10;62.80;;;;;;5025245;28;20463;-81
2023/07/30 03:56:14;;;;;;;5.37;4.93;;;25.00;63.40;;;;;;5017601;28;20464;-81
2023/07/30 03:58:42;;;;;;;5.40;4.90;;;25.00;63.20;;;;;;5018030;28;20440;-81
2023/07/30 04:01:11;;;;;;;4.83;4.43;;;25.10;63.20;;;;;;5031685;28;20478;-81
2023/07/30 04:03:39;;;;;;;5.80;5.20;;;25.10;63.20;;;;;;5037195;28;20451;-81
2023/07/30 04:06:07;;;;;;;6.47;4.97;;;25.00;62.90;;;;;;5031293;28;20480;-81
2023/07/30 04:08:35;;;;;;;6.43;5.67;;;25.00;62.70;;;;;;5034708;28;20513;-81
2023/07/30 04:11:03;;;;;;;5.60;4.93;;;25.00;62.90;;;;;;5029603;28;20434;-81
2023/07/30 04:13:32;;;;;;;4.70;4.30;;;25.00;63.60;;;;;;5030338;28;20497;-80
2023/07/30 04:16:00;;;;;;;5.47;4.77;;;25.00;62.90;;;;;;5034601;28;20479;-80
2023/07/30 04:18:28;;;;;;;5.50;4.70;;;25.00;62.80;;;;;;5034397;28;20493;-81
2023/07/30 04:20:56;;;;;;;5.03;4.53;;;25.00;62.80;;;;;;5034689;28;20444;-80
2023/07/30 04:23:24;;;;;;;5.17;4.63;;;25.10;62.80;;;;;;5034516;28;20462;-80
2023/07/30 04:25:52;;;;;;;5.30;4.80;;;25.10;62.60;;;;;;5031692;28;20477;-80
2023/07/30 04:28:20;;;;;;;5.87;4.57;;;25.10;62.50;;;;;;5028895;28;20509;-81
2023/07/30 04:30:49;;;;;;;4.73;4.13;;;25.00;62.40;;;;;;5030375;28;20439;-81
2023/07/30 04:33:18;;;;;;;4.87;4.47;;;25.00;62.30;;;;;;5025652;28;20419;-80
2023/07/30 04:35:46;;;;;;;4.63;4.10;;;25.00;62.50;;;;;;5021605;28;20899;-79
2023/07/30 04:38:14;;;;;;;7.40;4.37;;;25.00;62.40;;;;;;5013312;28;20526;-81
2023/07/30 04:40:42;;;;;;;4.27;3.97;;;25.00;62.30;;;;;;5021714;28;20506;-80
2023/07/30 04:43:09;;;;;;;5.73;3.93;;;25.00;62.20;;;;;;5019323;28;20508;-80
2023/07/30 04:45:37;;;;;;;4.30;3.90;;;25.00;62.40;;;;;;5017159;28;20477;-80
2023/07/30 04:48:07;;;;;;;4.53;4.00;;;25.00;62.30;;;;;;5037076;28;20441;-80
2023/07/30 04:50:35;;;;;;;4.20;3.80;;;25.00;62.20;;;;;;5034456;28;20463;-80
2023/07/30 04:53:03;;;;;;;5.00;4.17;;;25.00;62.10;;;;;;5015708;28;20492;-80
2023/07/30 04:55:31;;;;;;;4.60;4.20;;;25.00;62.40;;;;;;5034851;28;20442;-80
2023/07/30 04:58:02;;;;;;;5.50;3.90;;;25.00;62.10;;;;;;5033298;28;20566;-79
2023/07/30 05:00:30;;;;;;;5.43;4.40;;;25.00;62.00;;;;;;5022815;28;20426;-81
2023/07/30 05:02:58;;;;;;;7.63;4.33;;;25.10;61.60;;;;;;5036010;28;20470;-80
2023/07/30 05:05:27;;;;;;;4.27;3.70;;;25.10;61.70;;;;;;5029666;28;20440;-80
2023/07/30 05:07:56;;;;;;;4.90;4.00;;;25.10;61.40;;;;;;5034400;28;20469;-80
2023/07/30 05:10:24;;;;;;;4.03;3.30;;;25.10;61.80;;;;;;5033737;28;20830;-80
2023/07/30 05:12:52;;;;;;;6.03;3.77;;;25.10;61.70;;;;;;5034435;28;20440;-81
2023/07/30 05:15:20;;;;;;;3.90;3.40;;;25.10;62.00;;;;;;5034362;28;20561;-80
2023/07/30 05:17:47;;;;;;;4.00;3.60;;;25.10;61.50;;;;;;5034390;28;20477;-81
2023/07/30 05:20:16;;;;;;;8.90;3.30;;;25.10;60.90;;;;;;5042282;28;20428;-80
2023/07/30 05:22:46;;;;;;;3.70;3.30;;;25.10;61.50;;;;;;5051835;28;20777;-79
2023/07/30 05:25:14;;;;;;;4.00;3.70;;;25.20;61.10;;;;;;5050762;28;20505;-80
2023/07/30 05:27:42;;;;;;;5.00;3.80;;;25.20;61.30;;;;;;5046896;28;20431;-81
2023/07/30 05:30:11;;;;;;;5.67;3.50;;;25.20;61.00;;;;;;5037618;28;20541;-81
2023/07/30 05:32:39;;;;;;;5.10;3.40;;;25.20;61.20;;;;;;5039926;28;20467;-81
2023/07/30 05:35:07;;;;;;;4.37;3.50;;;25.20;61.10;;;;;;5034391;28;20460;-81
2023/07/30 05:37:35;;;;;;;5.70;4.07;;;25.20;60.60;;;;;;5037814;28;20495;-81
2023/07/30 05:40:07;;;;;;;4.70;3.70;;;25.20;61.00;;;;;;5031620;28;20430;-81
2023/07/30 05:42:35;;;;;;;5.37;3.50;;;25.30;60.50;;;;;;5040033;28;20449;-80
2023/07/30 05:45:03;;;;;;;4.57;3.60;;;25.30;60.70;;;;;;5039461;28;20513;-81
2023/07/30 05:47:31;;;;;;;4.70;3.10;;;25.30;60.60;;;;;;5038861;28;20460;-81
2023/07/30 05:49:59;;;;;;;3.73;3.23;;;25.30;60.50;;;;;;5035131;28;20467;-81
2023/07/30 05:52:27;;;;;;;6.80;4.00;;;25.30;60.70;;;;;;5039966;28;20472;-81
2023/07/30 05:54:55;;;;;;;3.83;3.50;;;25.30;60.40;;;;;;5039049;28;20454;-81
2023/07/30 05:57:24;;;;;;;4.37;3.47;;;25.30;60.70;;;;;;5039406;28;20517;-81
2023/07/30 05:59:53;;;;;;;3.30;3.00;;;25.30;60.40;;;;;;5038561;28;20440;-81
2023/07/30 06:02:20;;;;;;;3.33;3.03;;;25.40;60.50;;;;;;5031601;28;20458;-81
2023/07/30 06:04:49;;;;;;;4.60;3.67;;;25.40;60.50;;;;;;5038830;28;20497;-81
2023/07/30 06:07:17;;;;;;;3.77;3.10;;;25.40;60.00;;;;;;5032995;28;20474;-80
2023/07/30 06:09:46;;;;;;;3.80;3.40;;;25.40;60.20;;;;;;5031143;28;20478;-83
2023/07/30 06:12:14;;;;;;;3.50;3.20;;;25.40;60.30;;;;;;5039397;28;20503;-81
2023/07/30 06:14:43;;;;;;;5.30;3.47;;;25.40;60.30;;;;;;5038331;28;20461;-81
2023/07/30 06:17:12;;;;;;;3.33;2.93;;;25.50;59.90;;;;;;5038894;28;20426;-80
2023/07/30 06:19:40;;;;;;;3.30;3.10;;;25.40;59.90;;;;;;5039310;28;20435;-81
2023/07/30 06:22:08;;;;;;;3.63;3.30;;;25.40;60.10;;;;;;5038274;28;20459;-80
2023/07/30 06:24:36;;;;;;;3.73;3.20;;;25.50;60.30;;;;;;5036663;28;20470;-80
2023/07/30 06:27:05;;;;;;;5.77;3.40;;;25.60;60.30;;;;;;5034188;28;20458;-83
2023/07/30 06:29:33;;;;;;;7.07;3.60;;;25.60;60.10;;;;;;5034646;28;20472;-83
2023/07/30 06:32:02;;;;;;;6.60;3.13;;;25.70;59.70;;;;;;5026863;28;20764;-83
2023/07/30 06:34:30;;;;;;;3.23;2.90;;;25.70;59.70;;;;;;5034239;28;20436;-80
2023/07/30 06:36:57;;;;;;;3.00;2.80;;;25.70;59.80;;;;;;5031180;28;20474;-80
2023/07/30 06:39:25;;;;;;;5.20;2.70;;;25.80;59.80;;;;;;5037555;28;20971;-83
2023/07/30 06:41:53;;;;;;;3.00;2.80;;;25.80;59.70;;;;;;5037807;28;20534;-80
2023/07/30 06:44:24;;;;;;;3.67;3.20;;;25.80;59.90;;;;;;5038083;28;20438;-81
2023/07/30 06:46:52;;;;;;;5.10;2.73;;;25.80;59.80;;;;;;5037270;28;20475;-80
2023/07/30 06:49:21;;;;;;;3.50;3.10;;;26.00;59.60;;;;;;5029347;28;20451;-80
2023/07/30 06:51:49;;;;;;;4.30;3.30;;;26.00;59.20;;;;;;5038343;28;20448;-80
2023/07/30 06:54:17;;;;;;;2.90;2.70;;;26.10;59.50;;;;;;5038544;28;20458;-81
2023/07/30 06:56:45;;;;;;;3.07;2.77;;;26.10;59.10;;;;;;5038241;28;20498;-80
2023/07/30 06:59:13;;;;;;;6.90;2.97;;;26.10;59.10;;;;;;5037455;28;20501;-80
2023/07/30 07:01:41;;;;;;;3.37;3.03;;;26.20;59.20;;;;;;5037054;28;20503;-80
2023/07/30 07:04:10;;;;;;;4.30;3.30;;;26.20;59.60;;;;;;5036641;28;20474;-80
2023/07/30 07:06:39;;;;;;;4.53;3.23;;;26.30;59.00;;;;;;5032032;28;20499;-78
2023/07/30 07:09:07;;;;;;;4.07;3.00;;;26.30;59.30;;;;;;5037549;28;20474;-80
2023/07/30 07:11:35;;;;;;;2.93;2.73;;;26.30;59.00;;;;;;5037179;28;20513;-80
2023/07/30 07:14:03;;;;;;;4.03;2.80;;;26.40;59.10;;;;;;5029363;28;20479;-80
2023/07/30 07:16:31;;;;;;;2.80;2.50;;;26.50;58.70;;;;;;5037068;28;20487;-81
2023/07/30 07:18:59;;;;;;;3.03;2.70;;;26.50;58.90;;;;;;5036852;28;20458;-80
2023/07/30 07:21:27;;;;;;;5.60;3.00;;;26.60;59.00;;;;;;5035615;28;20547;-80
2023/07/30 07:23:56;;;;;;;4.53;2.70;;;26.60;58.80;;;;;;5037338;28;20490;-81
2023/07/30 07:26:24;;;;;;;3.33;2.70;;;26.70;58.70;;;;;;5037596;28;20483;-81
2023/07/30 07:28:52;;;;;;;2.90;2.70;;;26.70;58.70;;;;;;5037536;28;20486;-81
2023/07/30 07:31:20;;;;;;;6.77;2.53;;;26.80;58.70;;;;;;5034780;28;20551;-80
2023/07/30 07:33:48;;;;;;;5.17;2.70;;;26.90;58.60;;;;;;5031911;28;20439;-81
2023/07/30 07:36:16;;;;;;;2.90;2.70;;;26.90;58.70;;;;;;5029192;28;20488;-81
2023/07/30 07:38:44;;;;;;;3.00;2.53;;;27.00;58.60;;;;;;5031861;28;20434;-82
2023/07/30 07:41:17;;;;;;;4.40;2.90;;;27.10;59.20;;;;;;5028837;28;20427;-81
2023/07/30 07:43:45;;;;;;;3.80;2.83;;;27.10;58.40;;;;;;5034503;28;20452;-81
2023/07/30 07:46:14;;;;;;;5.97;3.90;;;27.20;58.40;;;;;;5034833;28;20970;-80
2023/07/30 07:48:47;;;;;;;5.43;3.23;;;27.20;58.40;;;;;;5039199;28;20500;-81
2023/07/30 07:51:15;;;;;;;3.43;2.80;;;27.30;58.50;;;;;;5037395;28;20997;-80
2023/07/30 07:53:43;;;;;;;6.27;3.33;;;27.30;58.20;;;;;;5033953;28;20406;-81
2023/07/30 07:56:11;;;;;;;4.17;2.97;;;27.40;58.30;;;;;;5033697;28;20473;-81
2023/07/30 07:58:42;;;;;;;4.57;3.33;;;27.40;58.20;;;;;;5033516;28;20456;-81
2023/07/30 08:01:10;;;;;;;3.47;3.23;;;27.40;58.20;;;;;;5034701;28;20435;-82
2023/07/30 08:03:40;;;;;;;7.03;3.40;;;27.40;58.10;;;;;;5041960;28;20412;-82
2023/07/30 08:06:08;;;;;;;4.80;3.30;;;27.40;58.20;;;;;;5023015;28;20467;-82
2023/07/30 08:08:36;;;;;;;3.73;3.30;;;27.40;58.20;;;;;;5032803;28;20407;-82
2023/07/30 08:11:08;;;;;;;4.17;3.40;;;27.30;58.20;;;;;;5036806;28;20471;-82
2023/07/30 08:13:36;;;;;;;5.43;3.60;;;27.30;58.40;;;;;;5039216;28;20443;-82
2023/07/30 08:16:06;;;;;;;4.93;3.40;;;27.30;58.50;;;;;;5037787;28;20536;-79
2023/07/30 08:18:34;;;;;;;5.13;3.33;;;27.30;58.50;;;;;;5040564;28;20479;-82
2023/07/30 08:21:03;;;;;;;7.73;3.50;;;27.40;58.40;;;;;;5021871;28;20515;-80
2023/07/30 08:23:30;;;;;;;5.03;3.40;;;27.30;58.40;;;;;;5023227;28;20440;-81
2023/07/30 08:26:00;;;;;;;4.20;3.63;;;27.40;58.40;;;;;;5029949;28;20447;-80
2023/07/30 08:28:29;;;;;;;13.03;4.40;;;27.30;58.40;;;;;;5030997;28;20530;-82
2023/07/30 08:31:01;;;;;;;5.90;3.73;;;27.30;58.50;;;;;;5033973;28;20476;-82
2023/07/30 08:33:30;;;;;;;4.40;3.30;;;27.40;58.40;;;;;;5039235;28;20466;-82
2023/07/30 08:35:59;;;;;;;6.67;4.17;;;27.40;58.40;;;;;;5039400;28;20471;-82
2023/07/30 08:38:31;;;;;;;9.73;4.50;;;27.40;58.40;;;;;;5039576;28;20443;-82
2023/07/30 08:41:00;;;;;;;4.13;3.40;;;27.40;58.50;;;;;;5029931;28;20403;-80
2023/07/30 08:43:52;;;;;;;5.17;3.57;;;27.50;58.30;;;;;;5026328;28;20430;-80
2023/07/30 08:46:21;;;;;;;6.17;4.00;;;27.50;58.40;;;;;;5028386;28;20459;-80
2023/07/30 08:48:52;;;;;;;4.10;3.73;;;27.50;58.20;;;;;;5039255;28;20525;-81
2023/07/30 08:51:23;;;;;;;5.77;3.70;;;27.50;58.20;;;;;;5040628;28;20543;-81
2023/07/30 08:53:54;;;;;;;6.17;3.80;;;27.60;58.20;;;;;;5040376;28;20407;-82
2023/07/30 08:56:32;;;;;;;7.67;3.73;;;27.60;58.40;;;;;;5041518;28;20451;-82
2023/07/30 08:59:07;;;;;;;7.10;4.10;;;27.70;58.40;;;;;;5042330;28;20443;-82
2023/07/30 09:01:39;;;;;;;5.57;4.20;;;27.90;58.10;;;;;;5041070;28;20474;-81
2023/07/30 09:04:09;;;;;;;4.47;3.70;;;28.00;58.40;;;;;;5041078;28;20462;-82
2023/07/30 09:06:38;;;;;;;5.97;3.67;;;28.20;58.00;;;;;;5040947;28;20467;-81
2023/07/30 09:09:09;;;;;;;5.60;3.93;;;28.20;57.80;;;;;;5039580;28;20447;-81
2023/07/30 09:11:38;;;;;;;5.03;3.80;;;28.20;58.00;;;;;;5039128;28;20537;-81
2023/07/30 09:14:07;;;;;;;6.37;3.50;;;28.30;58.10;;;;;;5020947;28;20433;-81
2023/07/30 09:16:38;;;;;;;5.77;3.67;;;28.50;58.00;;;;;;5019998;28;20483;-82
2023/07/30 09:19:07;;;;;;;8.97;3.50;;;28.60;57.80;;;;;;5019199;28;20480;-82
2023/07/30 09:21:37;;;;;;;5.87;3.57;;;28.60;57.50;;;;;;5025350;28;20495;-81
2023/07/30 09:24:06;;;;;;;3.70;3.10;;;28.60;57.60;;;;;;5040217;28;20444;-82
2023/07/30 09:26:41;;;;;;;4.37;3.30;;;28.70;57.80;;;;;;5037116;28;20563;-81
2023/07/30 09:29:16;;;;;;;5.87;3.10;;;28.70;57.50;;;;;;5039316;28;20538;-81
2023/07/30 09:31:48;;;;;;;5.43;3.50;;;28.80;57.40;;;;;;5038809;28;20471;-80
2023/07/30 09:34:18;;;;;;;7.10;3.57;;;28.80;57.30;;;;;;5039476;28;20531;-81
2023/07/30 09:36:47;;;;;;;5.13;3.30;;;28.80;57.30;;;;;;5039298;28;20593;-79
2023/07/30 09:39:20;;;;;;;8.73;3.97;;;28.80;57.30;;;;;;5039034;28;20522;-80
2023/07/30 09:41:48;;;;;;;7.83;3.57;;;28.80;57.40;;;;;;5038761;28;20968;-81
2023/07/30 09:44:21;;;;;;;4.20;3.50;;;28.90;57.50;;;;;;5037609;28;20447;-81
2023/07/30 09:46:50;;;;;;;3.70;3.40;;;29.10;57.30;;;;;;5038844;28;20501;-81
2023/07/30 09:49:18;;;;;;;7.33;3.93;;;29.40;57.40;;;;;;5030646;28;20439;-81
2023/07/30 09:51:48;;;;;;;4.13;3.23;;;29.50;56.90;;;;;;5038437;28;20475;-79
2023/07/30 09:54:20;;;;;;;9.00;3.10;;;29.70;56.80;;;;;;5032733;28;20496;-77
2023/07/30 09:56:49;;;;;;;10.73;3.40;;;28.40;53.10;;;;;;5034556;28;20478;-76
2023/07/30 09:59:17;;;;;;;9.80;3.20;;;27.30;53.90;;;;;;5021940;28;20493;-78
2023/07/30 10:01:47;;;;;;;10.40;3.23;;;26.30;53.20;;;;;;5026095;28;20448;-78
2023/07/30 10:04:15;;;;;;;14.10;3.83;;;26.10;54.50;;;;;;5026271;28;20428;-78
2023/07/30 10:06:45;;;;;;;19.23;3.90;;;26.20;55.30;;;;;;5023371;28;20463;-77
2023/07/30 10:09:15;;;;;;;8.73;3.23;;;26.00;55.60;;;;;;5025785;28;20467;-77
2023/07/30 10:11:42;;;;;;;14.30;3.50;;;25.70;56.70;;;;;;5023271;28;20472;-76
2023/07/30 10:14:10;;;;;;;11.33;3.27;;;25.40;56.70;;;;;;5025607;28;20443;-77
2023/07/30 10:16:38;;;;;;;11.40;3.37;;;24.60;55.70;;;;;;5018299;28;20480;-77
2023/07/30 10:19:07;;;;;;;9.73;3.13;;;24.60;57.30;;;;;;5022938;28;20456;-76
2023/07/30 10:21:36;;;;;;;9.70;3.43;;;25.00;57.20;;;;;;5021770;28;20444;-77
2023/07/30 10:24:04;;;;;;;11.30;3.73;;;24.60;56.90;;;;;;5025151;28;20482;-77
2023/07/30 10:26:36;;;;;;;11.90;3.50;;;24.50;57.50;;;;;;5019575;28;20443;-76
2023/07/30 10:29:14;;;;;;;7.83;3.80;;;24.60;58.40;;;;;;5019044;28;20454;-76
2023/07/30 10:31:42;;;;;;;8.43;3.50;;;24.50;57.50;;;;;;5026462;28;20437;-78
2023/07/30 10:34:11;;;;;;;8.77;4.20;;;24.50;58.00;;;;;;5031651;28;20435;-77
2023/07/30 10:36:43;;;;;;;13.70;4.07;;;24.10;58.00;;;;;;5031541;28;20459;-77
2023/07/30 10:39:13;;;;;;;7.23;4.13;;;24.80;60.00;;;;;;5031056;28;20436;-77
2023/07/30 10:41:43;;;;;;;9.57;3.13;;;25.30;59.20;;;;;;5026735;28;20509;-77
2023/07/30 10:44:19;;;;;;;8.67;3.50;;;25.50;57.30;;;;;;5029501;28;20447;-79
2023/07/30 10:46:49;;;;;;;8.70;3.30;;;25.80;57.20;;;;;;5012061;28;20555;-80
2023/07/30 10:49:17;;;;;;;12.90;3.90;;;25.40;57.10;;;;;;5015628;28;20535;-78
2023/07/30 10:51:45;;;;;;;13.23;3.50;;;25.10;56.00;;;;;;5021601;28;20849;-78
2023/07/30 10:54:16;;;;;;;8.93;3.47;;;25.20;56.60;;;;;;5031022;28;20506;-77
2023/07/30 10:56:45;;;;;;;11.87;3.47;;;25.30;57.10;;;;;;5030608;28;20456;-77
2023/07/30 10:59:14;;;;;;;8.87;3.60;;;25.40;56.90;;;;;;5028032;28;20494;-76
2023/07/30 11:01:51;;;;;;;10.10;3.30;;;25.20;56.80;;;;;;5030698;28;20481;-78
2023/07/30 11:04:25;;;;;;;11.37;3.37;;;24.60;57.40;;;;;;5031935;28;20439;-76
2023/07/30 11:06:56;;;;;;;5.60;3.23;;;24.70;58.00;;;;;;5031996;28;20478;-78
2023/07/30 11:09:25;;;;;;;7.20;2.67;;;25.20;58.20;;;;;;5011746;28;20427;-75
2023/07/30 11:11:56;;;;;;;5.53;2.10;;;25.60;56.60;;;;;;5011941;28;20460;-77
2023/07/30 11:14:25;;;;;;;6.43;2.27;;;25.40;53.30;;;;;;5017962;28;20483;-77
2023/07/30 11:16:54;;;;;;;4.93;1.90;;;25.00;54.70;;;;;;5023975;28;20534;-77
2023/07/30 11:19:22;;;;;;;2.20;1.93;;;25.20;55.90;;;;;;5030817;28;20432;-79
2023/07/30 11:21:53;;;;;;;8.47;2.20;;;25.20;55.30;;;;;;5030709;28;20493;-80
2023/07/30 11:24:24;;;;;;;11.33;2.17;;;25.00;54.60;;;;;;5031248;28;20418;-76
2023/07/30 11:26:59;;;;;;;6.70;2.30;;;24.30;59.90;;;;;;5030610;28;20468;-76
2023/07/30 11:29:28;;;;;;;15.90;1.77;;;25.30;59.80;;;;;;5030099;28;20418;-76
2023/07/30 11:31:57;;;;;;;10.40;1.93;;;26.00;58.20;;;;;;5030711;28;20542;-78
2023/07/30 11:34:25;;;;;;;5.23;1.77;;;26.60;57.10;;;;;;5030322;28;20443;-77
2023/07/30 11:36:53;;;;;;;6.03;2.00;;;26.90;56.30;;;;;;5026667;28;20535;-76
2023/07/30 11:39:21;;;;;;;5.93;1.80;;;27.20;55.90;;;;;;5022825;28;20476;-76
2023/07/30 11:41:50;;;;;;;8.30;1.73;;;27.50;55.60;;;;;;5023399;28;20522;-77
2023/07/30 11:44:37;;;;;;;3.67;1.37;;;27.70;55.20;;;;;;5025698;28;20474;-77
2023/07/30 11:47:06;;;;;;;5.90;1.30;;;27.80;54.80;;;;;;5028786;28;20479;-77
2023/07/30 11:49:34;;;;;;;2.23;1.20;;;27.70;52.60;;;;;;5027837;28;20443;-79
2023/07/30 11:52:06;;;;;;;4.43;1.70;;;25.70;53.70;;;;;;5026129;28;20471;-76
2023/07/30 11:54:34;;;;;;;5.57;1.80;;;23.70;59.10;;;;;;5029174;28;20538;-78
2023/07/30 11:57:02;;;;;;;3.20;1.60;;;23.00;62.90;;;;;;5023635;28;20518;-79
2023/07/30 11:59:31;;;;;;;14.23;1.87;;;22.50;64.90;;;;;;5029252;28;20447;-80
2023/07/30 12:02:01;;;;;;;8.70;1.70;;;22.80;68.20;;;;;;5017468;28;20437;-78
2023/07/30 12:04:32;;;;;;;6.63;1.80;;;23.90;68.50;;;;;;5027307;28;20440;-78
2023/07/30 12:07:02;;;;;;;2.60;1.50;;;24.80;64.90;;;;;;5030451;28;20462;-79
2023/07/30 12:09:31;;;;;;;3.93;1.37;;;25.70;62.70;;;;;;5021820;28;20474;-78
2023/07/30 12:12:02;;;;;;;4.23;1.30;;;26.40;60.80;;;;;;5029976;28;20857;-78
2023/07/30 12:14:44;;;;;;;6.63;1.57;;;27.10;59.10;;;;;;5022106;28;20486;-78
2023/07/30 12:17:13;;;;;;;3.60;1.20;;;27.90;57.90;;;;;;5029646;28;20455;-78
2023/07/30 12:19:42;;;;;;;11.00;1.77;;;28.20;56.70;;;;;;5021907;28;20446;-77
2023/07/30 12:22:09;;;;;;;11.83;1.90;;;28.40;55.70;;;;;;5033174;28;20459;-82
2023/07/30 12:24:37;;;;;;;13.40;1.60;;;28.40;55.20;;;;;;5036676;28;20941;-82
2023/07/30 12:27:05;;;;;;;5.77;1.70;;;28.40;55.00;;;;;;5035799;28;20498;-82
2023/07/30 12:29:34;;;;;;;2.30;1.40;;;28.40;54.90;;;;;;5026881;28;20444;-82
2023/07/30 12:32:02;;;;;;;9.17;2.00;;;28.50;54.80;;;;;;5020614;28;20447;-81
2023/07/30 12:34:33;;;;;;;5.80;1.30;;;28.50;54.80;;;;;;5036176;28;20481;-83
2023/07/30 12:37:00;;;;;;;4.43;1.40;;;28.60;54.70;;;;;;5039642;28;20467;-82
2023/07/30 12:39:29;;;;;;;3.00;1.27;;;28.80;54.90;;;;;;5038530;28;20488;-82
2023/07/30 12:41:56;;;;;;;6.80;1.40;;;29.30;55.20;;;;;;5029624;28;20463;-80
2023/07/30 12:44:25;;;;;;;5.10;1.27;;;29.90;54.70;;;;;;5037821;28;20470;-83
2023/07/30 12:46:53;;;;;;;4.70;1.50;;;30.50;53.40;;;;;;5037258;28;20470;-80
2023/07/30 12:49:22;;;;;;;7.90;1.60;;;30.90;52.80;;;;;;5044005;28;20470;-82
2023/07/30 12:51:52;;;;;;;8.90;2.07;;;31.30;53.30;;;;;;5044190;28;20482;-79
2023/07/30 12:54:22;;;;;;;2.97;1.50;;;31.70;52.50;;;;;;5041462;28;20472;-82